Time;durP1;ratioP1;P1;durP2;ratioP2;P2;SDS_P1;SDS_P2;PMS_P1;PMS_P2;Temp;Humidity;BMP_temperature;BMP_pressure;BME280_temperature;BME280_humidity;BME280_pressure;Samples;Min_cycle;Max_cycle;Signal;HPM_P1;HPM_P2
2023/07/26 00:01:45;;;;;;;8.70;7.37;;;12.20;91.30;;;;;;5039674;28;20037;-68
2023/07/26 00:04:11;;;;;;;7.80;5.73;;;12.20;91.40;;;;;;5024519;28;20050;-68
2023/07/26 00:06:37;;;;;;;6.93;5.70;;;12.20;91.10;;;;;;5018418;28;20442;-68
2023/07/26 00:09:03;;;;;;;5.77;5.17;;;12.30;91.10;;;;;;5046082;28;20056;-68
2023/07/26 00:11:29;;;;;;;7.33;4.57;;;12.30;91.60;;;;;;5035576;28;20045;-68
2023/07/26 00:13:55;;;;;;;7.17;4.57;;;12.30;91.00;;;;;;5027508;28;20342;-68
2023/07/26 00:16:21;;;;;;;9.77;4.77;;;12.30;91.00;;;;;;5036188;28;20342;-68
2023/07/26 00:18:47;;;;;;;6.87;4.37;;;12.30;91.10;;;;;;5037665;28;20288;-68
2023/07/26 00:21:12;;;;;;;5.63;3.93;;;12.30;90.90;;;;;;5047015;28;20040;-68
2023/07/26 00:23:38;;;;;;;6.77;4.20;;;12.30;91.00;;;;;;5046506;28;20048;-68
2023/07/26 00:26:04;;;;;;;5.93;3.93;;;12.20;91.00;;;;;;5046807;28;20052;-68
2023/07/26 00:28:29;;;;;;;6.33;3.50;;;12.20;90.70;;;;;;5047533;28;20049;-68
2023/07/26 00:30:55;;;;;;;6.33;3.93;;;12.10;91.00;;;;;;5035375;28;20383;-68
2023/07/26 00:33:21;;;;;;;3.67;3.23;;;12.10;90.70;;;;;;5044897;28;20045;-68
2023/07/26 00:35:46;;;;;;;5.73;3.80;;;12.00;90.60;;;;;;5047157;28;20034;-68
2023/07/26 00:38:12;;;;;;;4.53;3.20;;;11.90;90.50;;;;;;5052838;28;20032;-68
2023/07/26 00:40:39;;;;;;;5.33;3.53;;;11.90;90.60;;;;;;5047080;28;20037;-68
2023/07/26 00:43:05;;;;;;;5.17;3.47;;;11.80;90.60;;;;;;5031499;28;20059;-68
2023/07/26 00:45:35;;;;;;;6.13;3.67;;;11.80;90.50;;;;;;5043513;28;20410;-68
2023/07/26 00:48:01;;;;;;;5.80;3.10;;;11.70;90.70;;;;;;5033735;28;20373;-68
2023/07/26 00:50:27;;;;;;;5.43;3.43;;;11.70;90.70;;;;;;5051278;28;20329;-68
2023/07/26 00:52:54;;;;;;;8.37;3.50;;;11.60;90.80;;;;;;5048402;28;20206;-68
2023/07/26 00:55:20;;;;;;;6.70;3.60;;;11.60;90.70;;;;;;5047330;28;20029;-68
2023/07/26 00:57:47;;;;;;;7.00;4.10;;;11.50;90.70;;;;;;5042069;28;20841;-68
2023/07/26 01:00:13;;;;;;;5.97;4.00;;;11.50;91.00;;;;;;5048685;28;20614;-68
2023/07/26 01:02:39;;;;;;;7.03;4.07;;;11.50;91.00;;;;;;5048805;28;20294;-68
2023/07/26 01:05:06;;;;;;;5.80;3.53;;;11.50;91.00;;;;;;5040654;28;20308;-68
2023/07/26 01:07:35;;;;;;;6.20;3.60;;;11.50;91.10;;;;;;5047482;28;20109;-68
2023/07/26 01:10:19;;;;;;;8.37;3.60;;;11.50;91.20;;;;;;5047389;28;20294;-68
2023/07/26 01:13:00;;;;;;;6.00;3.23;;;11.50;91.20;;;;;;5041456;28;20296;-68
2023/07/26 01:15:34;;;;;;;4.80;3.47;;;11.50;91.20;;;;;;5044333;28;20665;-68
2023/07/26 01:18:14;;;;;;;5.97;4.47;;;11.50;91.30;;;;;;5033521;28;20347;-68
2023/07/26 01:20:40;;;;;;;6.30;3.63;;;11.50;91.10;;;;;;5044075;28;20284;-68
2023/07/26 01:23:06;;;;;;;4.53;3.03;;;11.40;91.00;;;;;;5033667;28;20768;-68
2023/07/26 01:25:33;;;;;;;5.63;3.47;;;11.40;90.80;;;;;;5032237;28;20279;-68
2023/07/26 01:27:58;;;;;;;5.27;3.43;;;11.40;91.20;;;;;;5049607;28;20440;-67
2023/07/26 01:30:29;;;;;;;6.73;3.57;;;11.30;91.50;;;;;;5032513;28;20284;-68
2023/07/26 01:33:03;;;;;;;5.00;3.17;;;11.30;91.30;;;;;;5043029;28;20544;-68
2023/07/26 01:35:30;;;;;;;6.57;3.63;;;11.30;91.50;;;;;;5021655;28;20291;-68
2023/07/26 01:37:57;;;;;;;6.67;3.20;;;11.30;91.50;;;;;;5035070;28;20310;-68
2023/07/26 01:40:23;;;;;;;7.50;3.63;;;11.30;91.40;;;;;;5047751;28;20417;-68
2023/07/26 01:42:49;;;;;;;5.67;3.30;;;11.30;91.60;;;;;;5049254;28;20809;-68
2023/07/26 01:45:16;;;;;;;6.17;3.00;;;11.30;91.60;;;;;;5031920;28;20355;-68
2023/07/26 01:47:42;;;;;;;4.93;3.10;;;11.30;91.50;;;;;;5047408;28;20044;-68
2023/07/26 01:50:08;;;;;;;4.43;3.00;;;11.20;91.60;;;;;;5048939;28;20679;-68
2023/07/26 01:52:34;;;;;;;4.47;2.90;;;11.20;92.00;;;;;;5034686;28;20525;-68
2023/07/26 01:55:00;;;;;;;7.33;3.40;;;11.20;91.90;;;;;;5032491;28;20322;-67
2023/07/26 01:57:26;;;;;;;7.27;3.50;;;11.20;92.00;;;;;;5042802;28;20040;-67
2023/07/26 01:59:53;;;;;;;4.57;3.50;;;11.20;92.20;;;;;;5047531;28;20346;-67
2023/07/26 02:02:18;;;;;;;6.00;3.30;;;11.20;92.10;;;;;;5029293;28;20323;-67
2023/07/26 02:04:44;;;;;;;5.67;3.40;;;11.20;92.20;;;;;;5043525;28;20768;-68
2023/07/26 02:07:10;;;;;;;8.53;3.70;;;11.30;92.50;;;;;;5038202;28;20124;-68
2023/07/26 02:09:36;;;;;;;5.17;3.43;;;11.30;92.50;;;;;;5040406;28;20317;-68
2023/07/26 02:12:02;;;;;;;5.53;3.77;;;11.30;92.50;;;;;;5046847;28;20068;-67
2023/07/26 02:14:28;;;;;;;5.90;3.90;;;11.40;92.60;;;;;;5048445;28;20319;-67
2023/07/26 02:16:53;;;;;;;9.73;4.57;;;11.40;92.80;;;;;;5034421;28;20041;-68
2023/07/26 02:19:19;;;;;;;7.80;4.37;;;11.50;93.00;;;;;;5033123;28;20120;-68
2023/07/26 02:21:45;;;;;;;7.10;3.47;;;11.50;92.90;;;;;;5030019;28;20034;-68
2023/07/26 02:24:10;;;;;;;9.60;4.33;;;11.50;92.80;;;;;;5046705;28;20067;-69
2023/07/26 02:26:36;;;;;;;5.93;4.10;;;11.60;93.30;;;;;;5043825;28;20033;-69
2023/07/26 02:29:02;;;;;;;9.50;3.27;;;11.70;93.70;;;;;;5045186;28;20186;-70
2023/07/26 02:31:28;;;;;;;12.93;3.27;;;11.70;94.10;;;;;;5044488;28;20643;-70
2023/07/26 02:33:53;;;;;;;7.57;3.23;;;11.80;94.10;;;;;;5037880;28;20037;-70
2023/07/26 02:36:19;;;;;;;5.87;2.47;;;11.80;94.70;;;;;;5045570;28;20051;-70
2023/07/26 02:38:45;;;;;;;8.20;2.73;;;11.80;94.90;;;;;;5048213;28;20116;-70
2023/07/26 02:41:10;;;;;;;6.57;2.73;;;11.80;95.40;;;;;;5042446;28;20033;-70
2023/07/26 02:43:36;;;;;;;5.60;2.50;;;11.80;96.30;;;;;;5038136;28;20497;-70
2023/07/26 02:46:02;;;;;;;5.13;1.80;;;11.80;95.90;;;;;;5047894;28;20496;-71
2023/07/26 02:48:28;;;;;;;4.50;1.77;;;11.70;96.40;;;;;;5073844;28;20083;-71
2023/07/26 02:50:53;;;;;;;7.53;2.10;;;11.70;97.10;;;;;;5046040;28;20044;-71
2023/07/26 02:53:19;;;;;;;8.23;2.33;;;11.70;96.90;;;;;;5029376;28;20090;-71
2023/07/26 02:55:45;;;;;;;6.17;2.10;;;11.70;97.00;;;;;;5035891;28;20405;-71
2023/07/26 02:58:11;;;;;;;5.43;2.30;;;11.70;97.30;;;;;;5047741;28;20362;-71
2023/07/26 03:00:36;;;;;;;6.77;2.07;;;11.70;97.50;;;;;;5036856;28;20472;-70
2023/07/26 03:03:02;;;;;;;8.13;3.00;;;11.70;97.70;;;;;;5044833;28;20052;-70
2023/07/26 03:05:28;;;;;;;7.37;1.87;;;11.60;97.30;;;;;;5038706;28;20087;-70
2023/07/26 03:07:54;;;;;;;6.93;2.37;;;11.60;97.60;;;;;;5047293;28;20048;-70
2023/07/26 03:10:20;;;;;;;5.20;2.20;;;11.60;97.50;;;;;;5035833;28;20365;-70
2023/07/26 03:12:45;;;;;;;5.17;2.10;;;11.60;97.60;;;;;;5047639;28;20560;-70
2023/07/26 03:15:11;;;;;;;6.33;2.20;;;11.60;97.80;;;;;;5042487;28;20074;-70
2023/07/26 03:17:37;;;;;;;4.20;2.30;;;11.60;98.10;;;;;;5030940;28;20061;-70
2023/07/26 03:20:03;;;;;;;7.33;2.13;;;11.60;98.30;;;;;;5042740;28;20044;-70
2023/07/26 03:22:29;;;;;;;6.47;2.30;;;11.50;98.40;;;;;;5055454;28;20041;-70
2023/07/26 03:24:54;;;;;;;5.50;2.63;;;11.60;99.00;;;;;;5042299;28;20287;-70
2023/07/26 03:27:20;;;;;;;5.20;2.00;;;11.60;99.00;;;;;;5037662;28;20401;-70
2023/07/26 03:29:46;;;;;;;5.97;2.33;;;11.50;99.10;;;;;;5035340;28;20044;-70
2023/07/26 03:32:12;;;;;;;7.80;1.97;;;11.50;99.10;;;;;;5037988;28;20114;-70
2023/07/26 03:34:38;;;;;;;5.00;2.10;;;11.50;99.40;;;;;;5037726;28;20486;-70
2023/07/26 03:37:04;;;;;;;8.47;2.60;;;11.40;99.40;;;;;;5035733;28;20076;-70
2023/07/26 03:39:29;;;;;;;5.83;2.70;;;11.40;99.60;;;;;;5036900;28;20549;-70
2023/07/26 03:41:55;;;;;;;10.33;2.37;;;11.30;99.70;;;;;;5037320;28;20039;-70
2023/07/26 03:44:21;;;;;;;6.70;2.70;;;11.30;99.90;;;;;;5038193;28;20045;-70
2023/07/26 03:46:46;;;;;;;8.07;2.27;;;11.30;99.90;;;;;;5041849;28;20152;-70
2023/07/26 03:49:12;;;;;;;8.47;2.60;;;11.30;99.90;;;;;;5036386;28;20041;-70
2023/07/26 03:51:38;;;;;;;7.43;2.33;;;11.30;99.90;;;;;;5044039;28;20047;-70
2023/07/26 03:54:04;;;;;;;9.27;2.50;;;11.30;99.90;;;;;;5042395;28;20551;-70
2023/07/26 03:56:29;;;;;;;6.23;2.00;;;11.30;99.90;;;;;;5028010;28;20080;-71
2023/07/26 03:58:55;;;;;;;5.67;1.90;;;11.30;99.90;;;;;;5037373;28;20068;-71
2023/07/26 04:01:21;;;;;;;5.33;1.97;;;11.30;99.90;;;;;;5038277;28;20257;-71
2023/07/26 04:03:48;;;;;;;7.70;2.10;;;11.40;99.90;;;;;;5038560;28;20116;-71
2023/07/26 04:06:14;;;;;;;5.10;1.60;;;11.40;99.90;;;;;;5042147;28;20497;-71
2023/07/26 04:08:40;;;;;;;6.47;1.80;;;11.40;99.90;;;;;;5046965;28;20291;-71
2023/07/26 04:11:06;;;;;;;6.67;1.70;;;11.40;99.90;;;;;;5043097;28;20283;-71
2023/07/26 04:13:33;;;;;;;3.40;1.60;;;11.50;99.90;;;;;;5039527;28;20316;-71
2023/07/26 04:15:59;;;;;;;7.20;2.00;;;11.50;99.90;;;;;;5037286;28;20339;-71
2023/07/26 04:18:25;;;;;;;7.17;2.00;;;11.50;99.90;;;;;;5030477;28;20344;-71
2023/07/26 04:20:51;;;;;;;5.87;2.20;;;11.60;99.90;;;;;;5021983;28;20283;-70
2023/07/26 04:23:17;;;;;;;5.87;1.70;;;11.60;99.90;;;;;;5044238;28;20045;-70
2023/07/26 04:25:47;;;;;;;7.20;2.20;;;11.70;99.90;;;;;;5042681;28;20045;-70
2023/07/26 04:28:13;;;;;;;6.03;2.20;;;11.70;99.90;;;;;;5030617;28;20042;-70
2023/07/26 04:30:38;;;;;;;6.13;1.90;;;11.80;99.90;;;;;;5026293;28;20283;-70
2023/07/26 04:33:04;;;;;;;6.93;1.90;;;11.80;99.90;;;;;;5043714;28;20068;-70
2023/07/26 04:35:30;;;;;;;5.83;2.20;;;11.90;99.90;;;;;;5025553;28;20067;-71
2023/07/26 04:37:55;;;;;;;6.40;2.40;;;11.90;99.90;;;;;;5036118;28;20045;-71
2023/07/26 04:40:21;;;;;;;5.57;1.97;;;11.90;99.90;;;;;;5032939;28;20175;-71
2023/07/26 04:42:47;;;;;;;8.10;2.50;;;12.00;99.90;;;;;;5038720;28;20359;-71
2023/07/26 04:45:12;;;;;;;5.83;2.27;;;12.00;99.90;;;;;;5034980;28;20191;-71
2023/07/26 04:47:38;;;;;;;7.63;2.37;;;12.00;99.90;;;;;;5040977;28;20049;-70
2023/07/26 04:50:04;;;;;;;5.30;1.50;;;12.00;99.90;;;;;;5040798;28;20128;-70
2023/07/26 04:52:33;;;;;;;6.93;2.00;;;12.00;99.90;;;;;;5024755;28;20163;-70
2023/07/26 04:54:59;;;;;;;3.97;1.57;;;12.00;99.90;;;;;;5034530;28;20303;-70
2023/07/26 04:57:24;;;;;;;4.57;1.80;;;12.00;99.90;;;;;;5032732;28;20284;-70
2023/07/26 04:59:50;;;;;;;5.80;1.90;;;12.00;99.90;;;;;;5026475;28;20059;-70
2023/07/26 05:02:16;;;;;;;5.07;1.47;;;12.00;99.90;;;;;;5030636;28;20575;-71
2023/07/26 05:04:41;;;;;;;6.50;1.80;;;12.10;99.90;;;;;;5028463;28;20103;-71
2023/07/26 05:07:07;;;;;;;7.63;1.97;;;12.10;99.90;;;;;;5002357;28;20084;-70
2023/07/26 05:09:33;;;;;;;6.90;1.80;;;12.10;99.90;;;;;;5002869;28;20092;-70
2023/07/26 05:11:58;;;;;;;5.50;1.53;;;12.10;99.90;;;;;;5003833;28;20036;-70
2023/07/26 05:14:24;;;;;;;5.43;1.90;;;12.10;99.90;;;;;;4998304;28;20049;-70
2023/07/26 05:16:50;;;;;;;5.37;1.60;;;12.20;99.90;;;;;;5004568;28;20060;-70
2023/07/26 05:19:15;;;;;;;5.33;1.43;;;12.20;99.90;;;;;;5005165;28;20087;-70
2023/07/26 05:21:42;;;;;;;5.23;1.77;;;12.20;99.90;;;;;;5003857;28;20049;-70
2023/07/26 05:24:07;;;;;;;5.87;2.20;;;12.20;99.90;;;;;;5011048;28;20084;-70
2023/07/26 05:26:33;;;;;;;6.93;2.00;;;12.20;99.90;;;;;;5005240;28;20312;-70
2023/07/26 05:28:59;;;;;;;4.10;1.90;;;12.30;99.90;;;;;;5010340;28;20042;-70
2023/07/26 05:31:24;;;;;;;3.50;2.07;;;12.20;99.90;;;;;;4998787;28;20051;-70
2023/07/26 05:33:50;;;;;;;7.27;2.10;;;12.30;99.90;;;;;;4992249;28;20347;-70
2023/07/26 05:36:16;;;;;;;5.50;2.37;;;12.30;99.90;;;;;;4991702;28;20136;-70
2023/07/26 05:38:41;;;;;;;6.83;2.30;;;12.30;99.90;;;;;;5003326;28;20046;-70
2023/07/26 05:41:07;;;;;;;7.30;2.33;;;12.30;99.90;;;;;;5003627;28;20510;-70
2023/07/26 05:43:33;;;;;;;6.90;2.27;;;12.40;99.90;;;;;;5012790;28;20049;-70
2023/07/26 05:46:01;;;;;;;6.83;2.43;;;12.40;99.90;;;;;;5006881;28;20049;-70
2023/07/26 05:48:27;;;;;;;4.93;2.80;;;12.40;99.90;;;;;;5003206;28;20136;-70
2023/07/26 05:50:53;;;;;;;4.67;2.13;;;12.40;99.90;;;;;;5000208;28;20371;-70
2023/07/26 05:53:19;;;;;;;8.90;3.00;;;12.50;99.90;;;;;;4986886;28;20227;-70
2023/07/26 05:55:45;;;;;;;9.37;2.33;;;12.50;99.90;;;;;;5012661;28;20029;-70
2023/07/26 05:58:11;;;;;;;5.90;2.47;;;12.50;99.90;;;;;;5011535;28;20045;-70
2023/07/26 06:00:37;;;;;;;8.70;2.90;;;12.50;99.90;;;;;;5012761;28;20276;-71
2023/07/26 06:03:03;;;;;;;8.17;2.33;;;12.50;99.90;;;;;;5001895;28;20049;-71
2023/07/26 06:05:29;;;;;;;4.60;2.43;;;12.50;99.90;;;;;;5024109;28;20706;-72
2023/07/26 06:07:54;;;;;;;5.57;3.27;;;12.50;99.90;;;;;;5027290;28;20043;-72
2023/07/26 06:10:20;;;;;;;8.93;3.60;;;12.50;99.90;;;;;;5031181;28;20076;-72
2023/07/26 06:12:46;;;;;;;7.87;3.03;;;12.50;99.90;;;;;;5038999;28;20112;-72
2023/07/26 06:15:12;;;;;;;8.53;2.73;;;12.40;99.90;;;;;;5035570;28;20432;-72
2023/07/26 06:17:38;;;;;;;6.33;2.60;;;12.40;99.90;;;;;;5044290;28;20279;-72
2023/07/26 06:20:05;;;;;;;6.00;2.67;;;12.40;99.90;;;;;;5039198;28;20462;-72
2023/07/26 06:22:30;;;;;;;5.77;2.43;;;12.40;99.90;;;;;;5031696;28;20278;-72
2023/07/26 06:24:56;;;;;;;5.87;2.57;;;12.40;99.90;;;;;;5037579;28;20290;-72
2023/07/26 06:27:25;;;;;;;6.37;2.63;;;12.40;99.90;;;;;;5048849;28;20337;-72
2023/07/26 06:29:51;;;;;;;7.53;3.13;;;12.40;99.90;;;;;;5046193;28;20041;-72
2023/07/26 06:32:16;;;;;;;7.40;3.57;;;12.40;99.90;;;;;;5022093;28;20296;-71
2023/07/26 06:34:42;;;;;;;6.30;3.87;;;12.50;99.90;;;;;;5045662;28;20656;-71
2023/07/26 06:37:08;;;;;;;8.63;3.80;;;12.50;99.90;;;;;;5041501;28;20048;-71
2023/07/26 06:39:34;;;;;;;7.30;3.40;;;12.60;99.90;;;;;;5040613;28;20365;-71
2023/07/26 06:42:00;;;;;;;8.53;3.57;;;12.60;99.90;;;;;;5047597;28;20036;-72
2023/07/26 06:44:25;;;;;;;6.43;2.87;;;12.70;99.90;;;;;;5033858;28;20037;-72
2023/07/26 06:46:51;;;;;;;5.73;2.37;;;12.70;99.90;;;;;;5048986;28;20043;-72
2023/07/26 06:49:17;;;;;;;6.00;2.97;;;12.80;99.90;;;;;;5034291;28;20048;-72
2023/07/26 06:51:42;;;;;;;3.17;1.90;;;12.90;99.90;;;;;;5026903;28;20500;-72
2023/07/26 06:54:08;;;;;;;5.27;1.87;;;13.00;99.90;;;;;;5036832;28;20052;-72
2023/07/26 06:56:34;;;;;;;4.93;1.67;;;13.10;99.90;;;;;;5034033;28;20037;-71
2023/07/26 06:59:01;;;;;;;4.90;2.00;;;13.10;99.90;;;;;;5044635;28;20493;-72
2023/07/26 07:01:27;;;;;;;6.73;2.00;;;13.20;99.90;;;;;;5051000;28;20065;-72
2023/07/26 07:03:52;;;;;;;3.57;1.80;;;13.20;99.90;;;;;;5033228;28;20307;-72
2023/07/26 07:06:19;;;;;;;4.97;2.27;;;13.30;99.90;;;;;;5051352;28;20049;-72
2023/07/26 07:08:45;;;;;;;6.80;2.93;;;13.30;99.90;;;;;;5052069;28;20347;-73
2023/07/26 07:11:11;;;;;;;8.17;3.20;;;13.30;99.90;;;;;;5048589;28;20441;-71
2023/07/26 07:13:39;;;;;;;7.13;3.40;;;13.30;99.90;;;;;;5049114;28;20102;-72
2023/07/26 07:16:05;;;;;;;7.43;3.83;;;13.30;99.90;;;;;;5030729;28;20290;-72
2023/07/26 07:18:33;;;;;;;7.47;3.53;;;13.30;99.90;;;;;;5026424;28;20044;-72
2023/07/26 07:21:03;;;;;;;6.47;4.13;;;13.40;99.90;;;;;;5047577;28;20044;-72
2023/07/26 07:23:31;;;;;;;6.70;3.63;;;13.40;99.90;;;;;;5057468;28;20286;-73
2023/07/26 07:25:57;;;;;;;9.93;4.30;;;13.50;99.90;;;;;;5042287;28;20322;-72
2023/07/26 07:28:23;;;;;;;6.30;3.93;;;13.70;99.90;;;;;;5054578;28;20456;-71
2023/07/26 07:30:49;;;;;;;7.83;4.00;;;13.90;99.90;;;;;;5074639;28;20055;-71
2023/07/26 07:33:15;;;;;;;6.00;3.37;;;14.00;99.90;;;;;;5052423;28;20065;-71
2023/07/26 07:35:41;;;;;;;7.27;4.07;;;14.20;99.90;;;;;;5054457;28;20068;-72
2023/07/26 07:38:07;;;;;;;6.27;3.53;;;14.40;99.90;;;;;;5056877;28;20302;-72
2023/07/26 07:40:33;;;;;;;8.40;3.40;;;14.50;99.90;;;;;;5057413;28;20099;-72
2023/07/26 07:42:58;;;;;;;8.33;3.57;;;14.50;99.90;;;;;;5045084;28;20094;-71
2023/07/26 07:45:26;;;;;;;6.73;3.77;;;14.60;99.90;;;;;;5058261;28;20305;-72
2023/07/26 07:47:51;;;;;;;8.00;3.77;;;14.60;99.90;;;;;;5065687;28;20075;-71
2023/07/26 07:50:17;;;;;;;5.20;3.40;;;14.60;99.90;;;;;;5054766;28;20279;-72
2023/07/26 07:52:44;;;;;;;7.50;3.83;;;14.60;99.90;;;;;;5051297;28;20340;-71
2023/07/26 07:55:09;;;;;;;6.37;2.80;;;14.50;99.90;;;;;;5046624;28;20048;-72
2023/07/26 07:57:35;;;;;;;6.03;3.57;;;14.50;99.90;;;;;;5040021;28;20700;-72
2023/07/26 08:00:02;;;;;;;6.20;2.83;;;14.50;99.90;;;;;;5046307;28;20072;-71
2023/07/26 08:02:27;;;;;;;5.20;2.37;;;14.60;99.90;;;;;;5042576;28;20289;-72
2023/07/26 08:04:53;;;;;;;3.27;1.90;;;14.90;99.90;;;;;;5038456;28;20813;-72
2023/07/26 08:07:19;;;;;;;3.00;2.00;;;15.10;99.90;;;;;;4994380;28;20041;-72
2023/07/26 08:09:45;;;;;;;4.53;1.90;;;15.50;99.90;;;;;;5012002;28;20373;-71
2023/07/26 08:12:13;;;;;;;5.03;2.50;;;15.70;99.90;;;;;;5014643;28;20045;-72
2023/07/26 08:14:39;;;;;;;4.67;2.37;;;16.00;99.90;;;;;;5008286;28;20280;-71
2023/07/26 08:17:05;;;;;;;4.73;2.20;;;16.10;99.90;;;;;;5001885;28;20041;-72
2023/07/26 08:19:31;;;;;;;3.97;1.83;;;16.20;99.90;;;;;;4992643;28;20037;-71
2023/07/26 08:21:57;;;;;;;2.93;2.10;;;16.30;99.90;;;;;;5024624;28;20029;-72
2023/07/26 08:24:22;;;;;;;3.63;2.20;;;16.30;99.90;;;;;;5014943;28;20036;-72
2023/07/26 08:26:48;;;;;;;5.67;2.40;;;16.30;99.90;;;;;;5019527;28;20033;-72
2023/07/26 08:29:15;;;;;;;4.03;2.07;;;16.20;99.80;;;;;;4999896;28;20037;-72
2023/07/26 08:31:41;;;;;;;4.07;2.27;;;16.00;98.80;;;;;;5008828;28;20091;-71
2023/07/26 08:34:10;;;;;;;5.27;2.17;;;15.80;96.30;;;;;;5025569;28;20293;-72
2023/07/26 08:36:35;;;;;;;4.23;2.27;;;15.50;96.90;;;;;;5003423;28;20311;-71
2023/07/26 08:39:01;;;;;;;5.70;2.37;;;15.20;97.00;;;;;;5008892;28;20083;-71
2023/07/26 08:41:28;;;;;;;3.57;2.20;;;15.00;97.90;;;;;;5000510;28;20509;-72
2023/07/26 08:43:55;;;;;;;6.13;2.20;;;14.80;98.10;;;;;;4998454;28;20069;-72
2023/07/26 08:46:23;;;;;;;4.13;2.13;;;14.70;98.00;;;;;;5014693;28;20394;-71
2023/07/26 08:48:49;;;;;;;4.13;2.10;;;14.70;98.60;;;;;;4991149;28;20279;-71
2023/07/26 08:51:15;;;;;;;4.10;1.60;;;14.90;99.90;;;;;;5007999;28;20345;-71
2023/07/26 08:53:44;;;;;;;1.57;0.83;;;15.00;99.90;;;;;;5004307;28;20042;-71
2023/07/26 08:56:12;;;;;;;2.30;1.00;;;15.20;99.90;;;;;;5000338;28;20312;-71
2023/07/26 08:58:37;;;;;;;2.23;1.13;;;15.20;99.20;;;;;;4990762;28;20288;-71
2023/07/26 09:01:04;;;;;;;2.20;0.90;;;15.10;98.80;;;;;;4991005;28;20311;-71
2023/07/26 09:03:30;;;;;;;3.17;1.10;;;15.10;95.10;;;;;;5006868;28;20049;-71
2023/07/26 09:06:06;;;;;;;2.23;1.00;;;15.00;93.00;;;;;;4987359;28;20304;-71
2023/07/26 09:08:32;;;;;;;1.83;0.90;;;15.20;95.60;;;;;;5012504;28;20528;-71
2023/07/26 09:11:00;;;;;;;3.33;1.20;;;15.40;94.40;;;;;;5009093;28;20280;-71
2023/07/26 09:13:26;;;;;;;2.17;1.10;;;15.50;96.80;;;;;;4997925;28;20858;-69
2023/07/26 09:15:51;;;;;;;2.63;1.20;;;15.60;97.50;;;;;;4999642;28;20513;-69
2023/07/26 09:18:17;;;;;;;3.57;1.43;;;15.60;97.10;;;;;;5001989;28;20512;-69
2023/07/26 09:20:43;;;;;;;4.03;1.70;;;15.50;97.80;;;;;;4985017;28;20037;-69
2023/07/26 09:23:11;;;;;;;5.13;1.43;;;15.60;98.70;;;;;;5002932;28;20490;-69
2023/07/26 09:25:39;;;;;;;3.57;1.70;;;15.50;98.90;;;;;;5011976;28;20068;-69
2023/07/26 09:28:07;;;;;;;5.03;1.80;;;15.50;99.40;;;;;;5002761;28;20294;-69
2023/07/26 09:30:38;;;;;;;3.53;1.77;;;15.40;98.10;;;;;;5006980;28;20337;-69
2023/07/26 09:33:06;;;;;;;4.50;2.20;;;15.50;99.90;;;;;;5005395;28;20664;-69
2023/07/26 09:35:40;;;;;;;5.43;2.40;;;15.80;99.90;;;;;;5020068;28;20291;-69
2023/07/26 09:38:26;;;;;;;5.50;2.20;;;16.10;99.90;;;;;;5005541;28;20280;-69
2023/07/26 09:40:51;;;;;;;2.53;1.80;;;16.50;99.90;;;;;;5004822;28;20038;-69
2023/07/26 09:43:31;;;;;;;4.27;2.13;;;16.70;99.90;;;;;;5012977;28;20454;-70
2023/07/26 09:46:04;;;;;;;2.40;1.50;;;16.80;99.90;;;;;;5012051;28;20148;-71
2023/07/26 09:48:31;;;;;;;3.70;1.47;;;16.70;99.90;;;;;;5003727;28;20276;-71
2023/07/26 09:51:03;;;;;;;2.23;1.50;;;16.70;99.20;;;;;;5009415;28;20367;-71
2023/07/26 09:53:31;;;;;;;3.20;1.50;;;16.60;97.40;;;;;;5002559;28;20307;-71
2023/07/26 09:55:57;;;;;;;2.77;1.30;;;16.40;99.10;;;;;;5004814;28;20296;-71
2023/07/26 09:58:28;;;;;;;2.30;1.30;;;16.50;99.90;;;;;;5000651;28;20289;-71
2023/07/26 10:00:56;;;;;;;3.30;1.60;;;16.60;99.90;;;;;;5003098;28;20644;-71
2023/07/26 10:03:22;;;;;;;4.37;1.87;;;16.80;99.90;;;;;;5000081;28;20388;-71
2023/07/26 10:05:51;;;;;;;2.83;1.43;;;16.90;99.90;;;;;;5020876;28;20295;-71
2023/07/26 10:08:19;;;;;;;4.33;1.47;;;17.00;99.90;;;;;;5044388;28;20291;-71
2023/07/26 10:10:47;;;;;;;4.57;1.67;;;17.00;99.90;;;;;;5043913;28;20321;-71
2023/07/26 10:13:14;;;;;;;4.90;1.93;;;17.20;99.90;;;;;;5022161;28;20392;-71
2023/07/26 10:15:46;;;;;;;5.20;2.40;;;17.30;99.90;;;;;;5031172;28;20366;-71
2023/07/26 10:18:15;;;;;;;4.67;2.30;;;17.40;96.30;;;;;;5034309;28;20449;-71
2023/07/26 10:20:43;;;;;;;5.47;2.00;;;17.60;96.80;;;;;;5034414;28;20284;-71
2023/07/26 10:23:11;;;;;;;4.63;2.10;;;17.70;97.60;;;;;;5034696;28;20296;-71
2023/07/26 10:25:38;;;;;;;5.60;2.37;;;17.80;96.80;;;;;;5037223;28;20378;-71
2023/07/26 10:28:04;;;;;;;4.97;2.20;;;17.80;96.40;;;;;;5043084;28;20284;-70
2023/07/26 10:30:31;;;;;;;6.60;2.63;;;17.90;95.90;;;;;;5048141;28;20318;-71
2023/07/26 10:32:59;;;;;;;3.73;1.70;;;17.80;96.00;;;;;;5050778;28;20052;-71
2023/07/26 10:35:33;;;;;;;2.33;1.50;;;17.60;96.40;;;;;;5057924;28;20365;-71
2023/07/26 10:38:03;;;;;;;5.20;1.63;;;17.10;88.40;;;;;;5048319;28;20810;-71
2023/07/26 10:40:35;;;;;;;5.53;2.40;;;16.70;85.60;;;;;;5039912;28;20334;-71
2023/07/26 10:43:21;;;;;;;3.33;2.03;;;16.40;86.90;;;;;;5042827;28;20664;-71
2023/07/26 10:45:53;;;;;;;5.03;2.13;;;16.30;89.60;;;;;;5049909;28;20290;-71
2023/07/26 10:48:39;;;;;;;4.40;1.77;;;16.50;90.90;;;;;;5047282;28;20729;-71
2023/07/26 10:51:24;;;;;;;;;;;16.90;90.10;;;;;;5059844;28;20323;-71
2023/07/26 10:53:53;;;;;;;4.65;1.52;;;17.30;84.90;;;;;;5041007;28;20514;-71
2023/07/26 10:56:23;;;;;;;3.97;1.60;;;17.60;84.60;;;;;;5046329;28;20556;-71
2023/07/26 10:58:54;;;;;;;4.57;2.00;;;17.80;84.40;;;;;;5044141;28;20826;-71
2023/07/26 11:01:31;;;;;;;5.03;2.07;;;17.90;85.20;;;;;;5046345;28;20299;-71
2023/07/26 11:04:00;;;;;;;4.63;1.63;;;18.10;84.20;;;;;;5041757;28;20835;-71
2023/07/26 11:06:47;;;;;;;4.50;2.03;;;18.20;82.90;;;;;;5038734;28;20892;-71
2023/07/26 11:09:26;;;;;;;4.77;1.70;;;18.50;83.80;;;;;;5049322;28;20288;-71
2023/07/26 11:12:03;;;;;;;4.83;1.90;;;18.70;83.30;;;;;;5044053;28;20280;-71
2023/07/26 11:14:31;;;;;;;6.73;1.70;;;18.90;78.70;;;;;;5040505;28;20287;-71
2023/07/26 11:16:59;;;;;;;3.13;1.30;;;19.10;77.60;;;;;;5038899;28;20286;-71
2023/07/26 11:19:29;;;;;;;5.10;1.80;;;19.20;81.40;;;;;;5045873;28;20391;-71
2023/07/26 11:22:05;;;;;;;4.73;1.60;;;19.20;74.50;;;;;;5034362;28;21062;-71
2023/07/26 11:24:31;;;;;;;6.40;2.07;;;19.00;77.10;;;;;;5040991;28;20312;-71
2023/07/26 11:27:03;;;;;;;3.80;1.53;;;19.00;76.80;;;;;;5042742;28;20299;-71
2023/07/26 11:29:29;;;;;;;4.13;1.70;;;19.00;77.30;;;;;;5040399;28;20025;-71
2023/07/26 11:31:55;;;;;;;4.80;1.23;;;19.20;79.60;;;;;;5043398;28;20290;-71
2023/07/26 11:34:21;;;;;;;3.13;1.60;;;19.30;72.90;;;;;;5039063;28;20525;-71
2023/07/26 11:36:46;;;;;;;4.10;1.73;;;19.30;74.90;;;;;;5041741;28;20079;-71
2023/07/26 11:39:20;;;;;;;2.07;1.37;;;19.30;76.70;;;;;;5045368;28;20048;-71
2023/07/26 11:41:46;;;;;;;3.53;1.43;;;19.30;72.70;;;;;;5042268;28;20117;-71
2023/07/26 11:44:13;;;;;;;2.60;1.20;;;19.50;76.40;;;;;;5037769;28;20866;-71
2023/07/26 11:46:43;;;;;;;3.47;1.23;;;19.60;75.40;;;;;;5050138;28;20539;-72
2023/07/26 11:49:22;;;;;;;3.50;1.30;;;19.70;77.50;;;;;;5029932;28;20048;-73
2023/07/26 11:51:51;;;;;;;3.37;1.30;;;19.90;73.20;;;;;;5026289;28;20041;-72
2023/07/26 11:54:18;;;;;;;2.83;1.50;;;20.00;73.80;;;;;;5048188;28;20041;-72
2023/07/26 11:56:44;;;;;;;4.83;1.13;;;20.00;73.20;;;;;;5051953;28;20029;-72
2023/07/26 11:59:11;;;;;;;4.43;1.40;;;20.10;73.90;;;;;;5044682;28;20042;-72
2023/07/26 12:01:38;;;;;;;5.17;0.90;;;20.10;67.80;;;;;;5033745;28;20050;-72
2023/07/26 12:04:15;;;;;;;2.90;1.20;;;19.80;66.00;;;;;;5047982;28;20103;-72
2023/07/26 12:06:44;;;;;;;2.30;0.93;;;19.80;70.70;;;;;;5039272;28;20110;-73
2023/07/26 12:09:11;;;;;;;2.13;1.13;;;19.90;70.50;;;;;;5051048;28;20052;-71
2023/07/26 12:11:55;;;;;;;4.33;1.50;;;19.90;71.10;;;;;;5055934;28;20151;-72
2023/07/26 12:14:21;;;;;;;3.97;1.37;;;19.80;65.00;;;;;;5044634;28;20329;-72
2023/07/26 12:16:49;;;;;;;3.50;1.50;;;19.50;68.60;;;;;;5048133;28;20079;-72
2023/07/26 12:19:14;;;;;;;3.03;1.43;;;19.60;73.10;;;;;;5043785;28;20037;-71
2023/07/26 12:21:40;;;;;;;4.40;1.30;;;19.80;69.30;;;;;;5043065;28;20482;-72
2023/07/26 12:24:06;;;;;;;2.23;1.30;;;20.00;68.90;;;;;;5042755;28;20041;-72
2023/07/26 12:26:35;;;;;;;3.57;1.50;;;20.30;66.90;;;;;;5043255;28;20064;-72
2023/07/26 12:29:03;;;;;;;2.73;1.47;;;20.60;70.80;;;;;;5069473;28;20057;-71
2023/07/26 12:31:32;;;;;;;4.73;1.80;;;20.70;66.60;;;;;;5046215;28;20041;-72
2023/07/26 12:33:58;;;;;;;3.37;1.30;;;20.60;66.50;;;;;;5053699;28;20061;-72
2023/07/26 12:36:50;;;;;;;3.87;1.37;;;20.50;65.60;;;;;;5052942;28;20075;-72
2023/07/26 12:39:19;;;;;;;4.20;1.60;;;20.40;61.20;;;;;;5034511;28;21031;-71
2023/07/26 12:41:45;;;;;;;4.67;1.40;;;20.40;64.60;;;;;;5043565;28;20512;-72
2023/07/26 12:44:11;;;;;;;2.77;1.20;;;20.20;65.00;;;;;;5056397;28;20049;-71
2023/07/26 12:46:38;;;;;;;4.33;1.40;;;20.20;67.20;;;;;;5032961;28;20046;-72
2023/07/26 12:49:08;;;;;;;3.33;1.30;;;20.10;66.80;;;;;;5048882;28;20072;-72